Time;durP1;ratioP1;P1;durP2;ratioP2;P2;SDS_P1;SDS_P2;PMS_P1;PMS_P2;Temp;Humidity;BMP_temperature;BMP_pressure;BME280_temperature;BME280_humidity;BME280_pressure;Samples;Min_cycle;Max_cycle;Signal;HPM_P1;HPM_P2
2023/12/13 00:03:15;;;;;;;11.82;4.38;;;;;;;;;;5479744;23;20478;-90
2023/12/13 00:05:56;;;;;;;11.18;4.55;;;;;;;;;;5009345;28;20413;-90
2023/12/13 00:08:35;;;;;;;10.63;4.85;;;;;;;;;;5007825;28;20050;-90
2023/12/13 00:11:16;;;;;;;9.40;5.90;;;;;;;;;;5006650;28;20069;-90
2023/12/13 00:13:53;;;;;;;6.35;2.85;;;;;;;;;;5007536;28;20062;-90
2023/12/13 00:16:24;;;;;;;9.25;5.93;;;;;;;;;;5008657;28;20077;-91
2023/12/13 00:19:07;;;;;;;12.85;5.13;;;;;;;;;;5025908;28;20164;-90
2023/12/13 00:21:35;;;;;;;12.88;6.10;;;;;;;;;;5004671;28;20088;-91
2023/12/13 00:24:04;;;;;;;9.27;5.15;;;;;;;;;;5005936;28;20076;-91
2023/12/13 00:26:46;;;;;;;10.43;5.13;;;;;;;;;;5021149;28;20096;-90
2023/12/13 00:29:29;;;;;;;12.13;5.25;;;;;;;;;;5006344;28;20058;-90
2023/12/13 00:32:12;;;;;;;21.38;6.57;;;;;;;;;;5001732;28;20045;-91
2023/12/13 00:34:55;;;;;;;8.93;4.47;;;;;;;;;;5008154;28;20408;-90
2023/12/13 00:37:41;;;;;;;10.65;4.68;;;;;;;;;;5023911;28;20069;-90
2023/12/13 00:40:24;;;;;;;15.35;5.10;;;;;;;;;;5008345;28;20230;-91
2023/12/13 00:42:53;;;;;;;13.40;5.78;;;;;;;;;;5011939;28;20061;-91
2023/12/13 00:45:23;;;;;;;14.93;7.25;;;;;;;;;;5009719;28;20257;-91
2023/12/13 00:47:55;;;;;;;9.38;6.20;;;;;;;;;;5010702;28;20061;-90
2023/12/13 00:50:26;;;;;;;9.35;3.95;;;;;;;;;;5006070;28;20060;-91
2023/12/13 00:52:56;;;;;;;15.60;5.70;;;;;;;;;;5005482;28;20117;-90
2023/12/13 00:55:24;;;;;;;12.95;4.63;;;;;;;;;;5022856;28;20050;-90
2023/12/13 00:58:07;;;;;;;14.10;6.75;;;;;;;;;;5009522;28;20424;-90
2023/12/13 01:00:40;;;;;;;11.68;4.72;;;;;;;;;;5005522;28;20064;-91
2023/12/13 01:03:17;;;;;;;14.93;6.97;;;;;;;;;;5007064;28;20073;-92
2023/12/13 01:05:58;;;;;;;24.58;6.90;;;;;;;;;;5006889;28;20041;-92
2023/12/13 01:08:28;;;;;;;16.95;5.85;;;;;;;;;;5007085;28;20045;-91
2023/12/13 01:11:10;;;;;;;12.32;7.00;;;;;;;;;;5007854;28;20088;-91
2023/12/13 01:13:41;;;;;;;18.23;7.05;;;;;;;;;;5006444;28;20343;-92
2023/12/13 01:16:25;;;;;;;22.65;8.30;;;;;;;;;;5021152;28;20072;-92
2023/12/13 01:18:55;;;;;;;22.00;5.78;;;;;;;;;;5006583;28;20050;-92
2023/12/13 01:21:36;;;;;;;13.02;5.57;;;;;;;;;;5006176;28;20057;-92
2023/12/13 01:24:06;;;;;;;12.75;6.13;;;;;;;;;;5007117;28;20140;-91
2023/12/13 01:26:35;;;;;;;17.58;7.50;;;;;;;;;;5009137;28;20054;-92
2023/12/13 01:29:03;;;;;;;14.90;6.50;;;;;;;;;;5007213;28;20064;-92
2023/12/13 01:31:39;;;;;;;23.23;6.72;;;;;;;;;;5007790;28;20057;-92
2023/12/13 01:34:07;;;;;;;17.30;7.65;;;;;;;;;;5007879;28;20049;-92
2023/12/13 01:36:44;;;;;;;13.90;6.65;;;;;;;;;;5008869;28;20050;-91
2023/12/13 01:39:17;;;;;;;16.10;6.88;;;;;;;;;;5008784;28;20077;-92
2023/12/13 01:41:53;;;;;;;19.10;6.75;;;;;;;;;;5014335;28;20069;-91
2023/12/13 01:44:25;;;;;;;10.65;5.65;;;;;;;;;;5009301;28;20050;-91
2023/12/13 01:46:53;;;;;;;20.13;7.72;;;;;;;;;;5007994;28;20053;-91
2023/12/13 01:49:23;;;;;;;22.48;7.18;;;;;;;;;;5007945;28;20140;-89
2023/12/13 01:52:05;;;;;;;18.08;7.97;;;;;;;;;;5009267;28;20050;-90
2023/12/13 01:54:34;;;;;;;16.42;6.68;;;;;;;;;;5005727;28;20049;-90
2023/12/13 01:57:15;;;;;;;16.58;6.47;;;;;;;;;;5005539;28;20046;-90
2023/12/13 01:59:49;;;;;;;22.40;6.88;;;;;;;;;;5022132;28;20056;-90
2023/12/13 02:02:30;;;;;;;14.48;6.35;;;;;;;;;;5005167;28;20108;-91
2023/12/13 02:05:12;;;;;;;13.43;6.60;;;;;;;;;;5009284;28;20058;-91
2023/12/13 02:07:43;;;;;;;20.08;6.78;;;;;;;;;;5005736;28;20118;-92
2023/12/13 02:10:16;;;;;;;16.60;8.15;;;;;;;;;;5005767;28;20050;-91
2023/12/13 02:12:47;;;;;;;15.50;7.13;;;;;;;;;;5006316;28;20057;-90
2023/12/13 02:15:20;;;;;;;13.27;6.07;;;;;;;;;;5005866;28;20587;-91
2023/12/13 02:18:02;;;;;;;10.95;6.35;;;;;;;;;;5004605;28;20078;-92
2023/12/13 02:20:32;;;;;;;13.32;5.78;;;;;;;;;;5005138;28;20309;-91
2023/12/13 02:23:12;;;;;;;17.15;7.63;;;;;;;;;;5005874;28;20298;-92
2023/12/13 02:25:47;;;;;;;10.52;5.70;;;;;;;;;;5005696;28;20347;-91
2023/12/13 02:28:22;;;;;;;14.02;6.72;;;;;;;;;;5006078;28;20069;-91
2023/12/13 02:30:50;;;;;;;9.93;4.78;;;;;;;;;;5005931;28;20076;-91
2023/12/13 02:33:31;;;;;;;15.55;7.80;;;;;;;;;;5005891;28;20105;-91
2023/12/13 02:36:12;;;;;;;17.67;7.65;;;;;;;;;;5005950;28;20057;-91
2023/12/13 02:38:41;;;;;;;20.55;6.90;;;;;;;;;;5006103;28;20121;-91
2023/12/13 02:41:12;;;;;;;22.05;7.90;;;;;;;;;;5006472;28;20201;-91
2023/12/13 02:43:45;;;;;;;16.48;7.30;;;;;;;;;;5006883;28;20050;-91
2023/12/13 02:46:27;;;;;;;13.52;7.00;;;;;;;;;;5068871;23;20046;-92
2023/12/13 02:48:58;;;;;;;15.63;6.30;;;;;;;;;;5003097;28;20050;-90
2023/12/13 02:51:31;;;;;;;27.48;8.57;;;;;;;;;;5003329;28;20313;-90
2023/12/13 02:54:01;;;;;;;20.98;8.05;;;;;;;;;;5003261;28;20081;-91
2023/12/13 02:56:33;;;;;;;15.27;6.47;;;;;;;;;;5001881;28;20058;-91
2023/12/13 02:59:10;;;;;;;21.88;7.63;;;;;;;;;;5001631;28;20100;-91
2023/12/13 03:01:39;;;;;;;20.58;7.88;;;;;;;;;;5001960;28;20336;-91
2023/12/13 03:04:23;;;;;;;18.38;8.07;;;;;;;;;;5003886;28;20348;-92
2023/12/13 03:06:52;;;;;;;28.27;9.55;;;;;;;;;;5006139;28;20054;-91
2023/12/13 03:09:23;;;;;;;26.42;7.88;;;;;;;;;;5002219;28;20065;-92
2023/12/13 03:11:52;;;;;;;22.08;7.60;;;;;;;;;;5001138;28;20055;-91
2023/12/13 03:14:25;;;;;;;20.08;7.05;;;;;;;;;;5002135;28;20417;-91
2023/12/13 03:16:55;;;;;;;16.23;7.53;;;;;;;;;;5000766;28;20050;-92
2023/12/13 03:19:30;;;;;;;15.10;7.97;;;;;;;;;;5000581;28;20050;-91
2023/12/13 03:22:11;;;;;;;22.80;7.40;;;;;;;;;;5002422;28;20068;-90
2023/12/13 03:24:40;;;;;;;17.73;7.47;;;;;;;;;;5007412;28;20050;-90
2023/12/13 03:27:08;;;;;;;16.90;6.55;;;;;;;;;;5008498;28;20094;-90
2023/12/13 03:29:44;;;;;;;14.23;5.68;;;;;;;;;;5008349;28;20301;-90
2023/12/13 03:32:25;;;;;;;19.60;7.55;;;;;;;;;;5005696;28;20058;-90
2023/12/13 03:35:06;;;;;;;21.00;8.07;;;;;;;;;;5004670;28;20052;-90
2023/12/13 03:37:38;;;;;;;18.98;7.25;;;;;;;;;;5004537;28;20054;-91
2023/12/13 03:40:06;;;;;;;15.15;5.97;;;;;;;;;;5004362;28;20340;-91
2023/12/13 03:42:38;;;;;;;15.10;6.20;;;;;;;;;;5005016;28;20061;-90
2023/12/13 03:45:13;;;;;;;17.23;6.95;;;;;;;;;;5007332;28;20077;-91
2023/12/13 03:47:55;;;;;;;13.60;5.32;;;;;;;;;;5010676;28;20089;-92
2023/12/13 03:50:23;;;;;;;12.02;5.53;;;;;;;;;;5009333;28;20124;-92
2023/12/13 03:52:52;;;;;;;14.15;6.35;;;;;;;;;;5025814;28;20054;-92
2023/12/13 03:55:20;;;;;;;17.80;7.70;;;;;;;;;;5026354;28;20065;-91
2023/12/13 03:57:49;;;;;;;19.80;6.65;;;;;;;;;;5011528;28;20037;-92
2023/12/13 04:00:17;;;;;;;17.30;7.85;;;;;;;;;;5013409;28;20073;-91
2023/12/13 04:02:46;;;;;;;11.38;6.80;;;;;;;;;;5025289;28;20061;-92
2023/12/13 04:05:15;;;;;;;10.88;6.03;;;;;;;;;;5008751;28;20116;-91
2023/12/13 04:07:43;;;;;;;18.30;6.47;;;;;;;;;;5010612;28;20053;-92
2023/12/13 04:10:11;;;;;;;16.33;7.00;;;;;;;;;;5008865;28;20049;-93
2023/12/13 04:12:40;;;;;;;18.17;7.35;;;;;;;;;;5009012;28;20050;-92
2023/12/13 04:15:09;;;;;;;18.90;7.63;;;;;;;;;;5025840;28;20062;-92
2023/12/13 04:17:37;;;;;;;21.65;8.38;;;;;;;;;;5026158;28;20145;-91
2023/12/13 04:20:10;;;;;;;24.10;8.80;;;;;;;;;;5011101;28;20084;-91
2023/12/13 04:22:37;;;;;;;17.25;7.70;;;;;;;;;;5032308;28;20042;-91
2023/12/13 04:25:06;;;;;;;21.90;8.02;;;;;;;;;;5016307;28;20064;-92
2023/12/13 05:06:36;;;;;;;26.95;8.48;;;;;;;;;;5011463;28;20102;-90
2023/12/13 05:09:03;;;;;;;22.77;9.38;;;;;;;;;;5012190;28;20073;-88
2023/12/13 05:11:35;;;;;;;19.48;8.52;;;;;;;;;;4995920;28;20065;-91
2023/12/13 05:14:03;;;;;;;21.35;9.63;;;;;;;;;;5012074;28;20042;-91
2023/12/13 05:16:45;;;;;;;30.27;10.25;;;;;;;;;;4995621;28;20263;-91
2023/12/13 05:41:58;;;;;;;30.38;11.13;;;;;;;;;;5885546;23;20046;-91
2023/12/13 05:44:40;;;;;;;28.50;11.90;;;;;;;;;;5019131;28;20057;-91
2023/12/13 05:47:20;;;;;;;27.63;10.35;;;;;;;;;;5005646;28;20484;-90
2023/12/13 05:50:04;;;;;;;32.30;12.13;;;;;;;;;;5009083;28;20033;-91
2023/12/13 05:52:36;;;;;;;38.85;12.90;;;;;;;;;;5006940;28;20205;-91
2023/12/13 05:55:08;;;;;;;25.00;10.75;;;;;;;;;;5002750;28;20069;-90
2023/12/13 05:57:39;;;;;;;26.80;11.95;;;;;;;;;;5018928;28;20347;-91
2023/12/13 06:00:09;;;;;;;30.52;11.45;;;;;;;;;;5001770;28;20057;-91
2023/12/13 06:02:41;;;;;;;33.58;11.88;;;;;;;;;;5005726;28;20057;-90
2023/12/13 06:05:24;;;;;;;25.48;10.43;;;;;;;;;;5004133;28;20084;-91
2023/12/13 06:08:04;;;;;;;28.73;11.13;;;;;;;;;;5000847;28;20061;-91
2023/12/13 06:10:39;;;;;;;38.10;11.57;;;;;;;;;;5001436;28;20097;-91
2023/12/13 06:13:20;;;;;;;24.70;10.18;;;;;;;;;;5001565;28;20061;-91
2023/12/13 06:16:01;;;;;;;27.13;10.30;;;;;;;;;;5002689;28;20054;-89
2023/12/13 06:19:02;;;;;;;36.20;12.40;;;;;;;;;;5006818;28;20428;-92
2023/12/13 06:21:43;;;;;;;27.98;10.60;;;;;;;;;;4983692;28;20084;-91
2023/12/13 06:24:20;;;;;;;35.03;11.48;;;;;;;;;;5007576;28;20335;-91
2023/12/13 06:27:03;;;;;;;18.10;8.27;;;;;;;;;;5005827;28;20043;-91
2023/12/13 06:29:44;;;;;;;34.03;10.80;;;;;;;;;;4983507;28;20065;-91
2023/12/13 06:32:28;;;;;;;32.60;11.07;;;;;;;;;;4980711;28;20454;-90
2023/12/13 06:35:13;;;;;;;25.75;9.65;;;;;;;;;;4978593;28;20149;-91
2023/12/13 06:37:45;;;;;;;29.43;10.93;;;;;;;;;;4979531;28;20054;-91
2023/12/13 06:40:26;;;;;;;40.22;11.10;;;;;;;;;;4976118;28;20568;-91
2023/12/13 06:43:10;;;;;;;26.77;11.00;;;;;;;;;;4980196;28;20673;-91
2023/12/13 06:45:51;;;;;;;30.35;10.57;;;;;;;;;;4982569;28;20034;-91
2023/12/13 06:48:25;;;;;;;24.75;9.27;;;;;;;;;;4976754;28;20118;-91
2023/12/13 06:51:07;;;;;;;25.30;9.75;;;;;;;;;;4978820;28;20245;-91
2023/12/13 06:53:49;;;;;;;29.60;10.18;;;;;;;;;;4974359;28;20077;-91
2023/12/13 18:02:26;;;;;;;11.27;4.43;;;;;;;;;;3990677;23;20338;31
2023/12/13 18:05:09;;;;;;;5.65;3.08;;;;;;;;;;4980701;28;20055;-89
2023/12/13 18:07:49;;;;;;;3.70;2.85;;;;;;;;;;4963275;28;20065;-89
2023/12/13 18:10:29;;;;;;;4.55;3.15;;;;;;;;;;4961559;28;20113;-89
2023/12/13 18:13:27;;;;;;;6.45;2.83;;;;;;;;;;4960216;28;20051;-89
2023/12/13 18:16:08;;;;;;;3.55;2.90;;;;;;;;;;4961586;28;20050;-88
2023/12/13 18:18:52;;;;;;;3.75;3.22;;;;;;;;;;4959529;28;20042;-89
2023/12/13 18:21:52;;;;;;;5.20;2.53;;;;;;;;;;4959997;28;20117;-90
2023/12/13 18:24:36;;;;;;;6.07;3.65;;;;;;;;;;4962328;28;20062;-90
2023/12/13 18:27:21;;;;;;;6.18;2.75;;;;;;;;;;4962508;28;20122;-90
2023/12/13 18:30:02;;;;;;;3.90;2.55;;;;;;;;;;4964144;28;20051;-90
2023/12/13 18:32:34;;;;;;;6.75;3.80;;;;;;;;;;4984864;28;20057;-92
2023/12/13 18:35:11;;;;;;;4.40;3.42;;;;;;;;;;4968748;28;20409;-92
2023/12/13 18:37:52;;;;;;;7.22;4.10;;;;;;;;;;4968426;28;20046;-93
2023/12/13 18:40:20;;;;;;;5.43;2.30;;;;;;;;;;4989398;28;20043;-92
2023/12/13 18:42:49;;;;;;;6.30;3.03;;;;;;;;;;4968828;28;20055;-92
2023/12/13 18:45:20;;;;;;;10.00;3.58;;;;;;;;;;4968878;28;20046;-92
2023/12/13 18:48:06;;;;;;;4.07;2.92;;;;;;;;;;4968962;28;20409;-92
2023/12/13 18:50:46;;;;;;;4.18;2.50;;;;;;;;;;4972133;28;20055;-93
2023/12/13 18:53:25;;;;;;;1.95;1.35;;;;;;;;;;4968585;28;20205;-92
2023/12/13 18:56:01;;;;;;;4.15;2.13;;;;;;;;;;4966720;28;20412;-93
2023/12/13 18:58:42;;;;;;;3.80;2.15;;;;;;;;;;4984016;28;20058;-92
2023/12/13 20:14:58;;;;;;;4.50;2.37;;;;;;;;;;5017041;23;20532;-90
2023/12/13 20:17:52;;;;;;;4.95;2.75;;;;;;;;;;4964960;28;20537;-92
2023/12/13 20:20:52;;;;;;;3.25;2.53;;;;;;;;;;4952917;29;20062;-91
2023/12/13 20:23:35;;;;;;;4.50;2.83;;;;;;;;;;4950318;29;20059;-91
2023/12/13 20:26:08;;;;;;;4.22;2.80;;;;;;;;;;4949690;28;20055;-92
2023/12/13 20:29:06;;;;;;;5.07;2.67;;;;;;;;;;4951771;28;20061;-91
2023/12/13 20:31:50;;;;;;;4.32;1.90;;;;;;;;;;4953069;29;20059;-91
2023/12/13 20:34:45;;;;;;;5.03;2.28;;;;;;;;;;4950693;29;20043;-92
2023/12/13 20:37:25;;;;;;;5.00;2.78;;;;;;;;;;4951368;28;20122;-92
2023/12/13 20:40:07;;;;;;;5.80;3.92;;;;;;;;;;4951940;29;20042;-92
2023/12/13 20:42:40;;;;;;;8.55;3.03;;;;;;;;;;4947416;29;20114;-92
2023/12/13 20:45:12;;;;;;;5.53;3.33;;;;;;;;;;4950291;28;20055;-92
2023/12/13 20:47:54;;;;;;;9.18;3.78;;;;;;;;;;4950175;29;20055;-91
2023/12/13 20:50:27;;;;;;;5.90;3.10;;;;;;;;;;4948212;29;20062;-91
2023/12/13 20:53:08;;;;;;;5.43;2.75;;;;;;;;;;4949254;29;20065;-91
2023/12/13 20:55:48;;;;;;;4.75;3.15;;;;;;;;;;4948706;29;20055;-91
2023/12/13 20:58:20;;;;;;;7.07;3.60;;;;;;;;;;4947323;29;20051;-91
2023/12/13 21:01:01;;;;;;;5.90;3.17;;;;;;;;;;4962150;28;20444;-90
2023/12/13 21:03:45;;;;;;;5.20;2.72;;;;;;;;;;4962436;28;20063;-91
2023/12/13 21:06:17;;;;;;;8.57;3.65;;;;;;;;;;4949478;29;20082;-90
2023/12/13 21:08:52;;;;;;;4.57;2.30;;;;;;;;;;4951020;29;20055;-91
2023/12/13 21:11:30;;;;;;;5.43;3.35;;;;;;;;;;4949563;29;20055;-91
2023/12/13 21:14:11;;;;;;;7.10;3.53;;;;;;;;;;4950107;28;20115;-91
2023/12/13 21:16:55;;;;;;;6.03;4.05;;;;;;;;;;4965962;28;20062;-91
2023/12/13 21:19:36;;;;;;;4.13;3.28;;;;;;;;;;4951000;29;20051;-91
2023/12/13 21:22:10;;;;;;;3.47;2.13;;;;;;;;;;4967076;29;20307;-91
2023/12/13 21:24:51;;;;;;;4.82;1.90;;;;;;;;;;4953655;29;20051;-91
2023/12/13 21:27:34;;;;;;;3.17;2.28;;;;;;;;;;4954664;29;20031;-91
2023/12/13 21:30:21;;;;;;;4.18;2.92;;;;;;;;;;4965733;28;20061;-91
2023/12/13 21:32:57;;;;;;;7.57;2.15;;;;;;;;;;4949218;29;20057;-91
2023/12/13 21:35:34;;;;;;;5.07;2.50;;;;;;;;;;4949700;29;20051;-92
2023/12/13 21:38:15;;;;;;;3.80;3.22;;;;;;;;;;4955784;28;20055;-92
2023/12/13 21:40:58;;;;;;;4.80;2.42;;;;;;;;;;4955670;28;20062;-91
2023/12/13 21:43:40;;;;;;;5.32;2.38;;;;;;;;;;4952013;29;20111;-91
2023/12/13 21:46:24;;;;;;;5.22;3.70;;;;;;;;;;4948619;29;20051;-91
2023/12/13 21:48:57;;;;;;;3.13;2.03;;;;;;;;;;4964590;28;20054;-92
2023/12/13 21:51:35;;;;;;;6.90;2.60;;;;;;;;;;4948615;29;20056;-91
2023/12/13 21:54:09;;;;;;;5.55;3.00;;;;;;;;;;4948233;29;20051;-92
2023/12/13 21:56:39;;;;;;;3.83;2.58;;;;;;;;;;4948664;29;20055;-91
2023/12/13 21:59:16;;;;;;;5.07;3.38;;;;;;;;;;4951448;28;20035;-92
2023/12/13 22:01:58;;;;;;;5.43;3.40;;;;;;;;;;4947316;29;20168;-91
2023/12/13 22:04:28;;;;;;;7.15;3.45;;;;;;;;;;4948888;28;20062;-91
2023/12/13 22:07:10;;;;;;;4.50;2.70;;;;;;;;;;4968595;28;20039;-91
2023/12/13 22:09:43;;;;;;;7.32;3.65;;;;;;;;;;4947454;29;20058;-91
2023/12/13 22:12:13;;;;;;;6.78;3.47;;;;;;;;;;4943948;29;20055;-89
2023/12/13 22:14:55;;;;;;;4.28;2.72;;;;;;;;;;4944553;29;20067;-89
2023/12/13 22:17:37;;;;;;;4.80;3.10;;;;;;;;;;4943305;29;20251;-90
2023/12/13 22:20:19;;;;;;;3.40;1.70;;;;;;;;;;4943442;29;20055;-90
2023/12/13 22:23:03;;;;;;;4.45;3.00;;;;;;;;;;4958478;29;20398;-90
2023/12/13 22:25:44;;;;;;;5.85;3.35;;;;;;;;;;4944853;28;20140;-91
2023/12/13 22:28:30;;;;;;;5.47;2.67;;;;;;;;;;4959255;29;20063;-90
2023/12/13 22:31:11;;;;;;;3.30;1.95;;;;;;;;;;4944150;29;20051;-90
2023/12/13 22:33:52;;;;;;;5.28;2.70;;;;;;;;;;4945213;29;20117;-90
2023/12/13 22:36:33;;;;;;;3.75;2.85;;;;;;;;;;4944718;29;20051;-90
2023/12/13 22:39:17;;;;;;;4.65;3.03;;;;;;;;;;4962307;28;20079;-90
2023/12/13 22:41:58;;;;;;;7.55;2.83;;;;;;;;;;4943892;29;20263;-89
2023/12/13 22:44:45;;;;;;;5.25;2.97;;;;;;;;;;4961533;28;20110;-89
2023/12/13 22:47:23;;;;;;;5.35;3.28;;;;;;;;;;4946555;29;20055;-89
2023/12/13 22:50:05;;;;;;;3.90;2.13;;;;;;;;;;4945957;29;20054;-89
2023/12/13 22:52:38;;;;;;;5.50;2.33;;;;;;;;;;4944594;29;20054;-89
2023/12/13 22:55:06;;;;;;;4.45;2.83;;;;;;;;;;4962042;29;20289;-89
2023/12/13 22:57:50;;;;;;;3.30;1.95;;;;;;;;;;4946122;29;20051;-90
2023/12/13 23:00:31;;;;;;;5.15;2.85;;;;;;;;;;4945725;29;20043;-91
2023/12/13 23:03:15;;;;;;;4.40;2.72;;;;;;;;;;4945547;29;20066;-89
2023/12/13 23:05:56;;;;;;;5.57;2.58;;;;;;;;;;4950680;28;20214;-90
2023/12/13 23:08:30;;;;;;;6.43;3.35;;;;;;;;;;4945657;29;20058;-89
2023/12/13 23:16:21;;;;;;;5.00;2.33;;;;;;;;;;5231400;23;20493;-89
2023/12/13 23:19:07;;;;;;;4.22;2.83;;;;;;;;;;4961785;28;20114;-89
2023/12/13 23:21:49;;;;;;;4.07;2.08;;;;;;;;;;4944731;29;20062;-90
2023/12/13 23:24:30;;;;;;;3.70;2.22;;;;;;;;;;4945697;29;20043;-89
2023/12/13 23:27:11;;;;;;;10.57;2.78;;;;;;;;;;4943886;29;20062;-90
2023/12/13 23:29:43;;;;;;;3.78;2.72;;;;;;;;;;4946666;29;20067;-90
2023/12/13 23:32:29;;;;;;;3.60;2.63;;;;;;;;;;4947453;29;20043;-89
2023/12/13 23:35:16;;;;;;;3.63;2.53;;;;;;;;;;4964041;28;20055;-90
2023/12/13 23:38:00;;;;;;;11.20;2.93;;;;;;;;;;4947035;29;20043;-90
2023/12/13 23:40:42;;;;;;;3.28;1.65;;;;;;;;;;4953574;29;20764;-90
2023/12/13 23:43:29;;;;;;;2.10;1.65;;;;;;;;;;4965805;28;20063;-91
2023/12/13 23:46:13;;;;;;;3.22;2.35;;;;;;;;;;4964468;28;20055;-91
2023/12/13 23:48:57;;;;;;;2.53;1.63;;;;;;;;;;4959417;28;20053;-89
2023/12/13 23:51:26;;;;;;;3.88;2.58;;;;;;;;;;4958436;28;20039;-89
2023/12/13 23:54:07;;;;;;;2.80;2.00;;;;;;;;;;4959527;28;20065;-90
2023/12/13 23:56:48;;;;;;;4.53;2.78;;;;;;;;;;4959286;28;20091;-89
2023/12/13 23:59:20;;;;;;;4.47;2.30;;;;;;;;;;4958294;28;20175;-90
